Latest Weather Observations for Cooma Airport

IDN60801

Issued at 8:22 am EDT Wednesday 24 October 2018 (issued every 10 minutes, with the page automatically refreshed every 10 minutes)

About weather observations | Map of weather stations | Latest weather observations for NSW | Other Formats
Station Details ID: 070217 Name: COOMA AIRPORT AWS Lat: -36.29 Lon: 148.97 Height: 930.0 m
Data from the previous 72 hours. | See also: Recent months at Cooma Airport
Date/Time
EDT
Temp
°C
App
Temp
°C
Dew
Point
°C
Rel
Hum
%
Delta-T
°C
Wind Press
QNH
hPa
Press
MSL
hPa
Rain since
9am
mm
Dir  Spd
km/h
Gust
km/h
Spd
kts
Gust
kts
24/08:03am 6.6 0.9 2.9 77 1.6 SSW 22 26 12 14 1021.5 1020.4 0.0
24/08:00am 6.4 0.7 2.9 78 1.5 SSW 22 26 12 14 1021.5 1020.4 0.0
24/07:30am 5.8 0.2 3.6 86 1.0 SSW 22 28 12 15 1021.1 1020.0 0.0
24/07:29am 5.8 0.3 3.8 87 0.9 SW 22 28 12 15 1021.1 1020.0 0.0
24/07:00am 5.8 -0.6 1.2 72 1.9 S 24 30 13 16 1020.7 1019.6 0.0
24/06:30am 5.7 -1.0 1.2 73 1.9 SSW 26 32 14 17 1020.3 1019.2 0.0
24/06:22am 5.7 -0.3 1.1 72 1.9 SSW 22 28 12 15 1020.2 1019.0 0.0
24/06:00am 5.7 -0.2 2.0 77 1.6 SSW 22 30 12 16 1019.8 1018.7 0.0
24/05:30am 6.3 0.4 4.1 86 1.0 S 24 28 13 15 1019.3 1018.1 0.0
24/05:00am 6.9 0.9 5.4 90 0.7 SSW 26 32 14 17 1018.8 1017.7 0.0
24/04:30am 7.4 1.7 4.9 84 1.2 SSW 24 32 13 17 1018.3 1017.1 0.0
24/04:00am 7.5 3.2 5.1 85 1.1 SW 17 24 9 13 1018.2 1017.0 0.0
24/03:30am 7.2 2.8 5.0 86 1.0 SSW 17 20 9 11 1018.2 1017.0 0.0
24/03:00am 7.2 3.2 4.7 84 1.2 S 15 17 8 9 1018.1 1016.9 0.0
24/02:48am 7.4 3.0 4.9 84 1.2 SSW 17 20 9 11 1018.1 1016.9 0.0
24/02:30am 7.5 3.1 4.8 83 1.3 SSW 17 20 9 11 1018.0 1016.8 0.0
24/02:00am 7.8 1.8 5.1 83 1.3 S 26 32 14 17 1018.0 1016.8 0.0
24/01:38am 8.0 2.4 5.5 84 1.2 S 24 30 13 16 1018.0 1016.8 0.0
24/01:30am 8.0 2.1 5.6 85 1.1 S 26 33 14 18 1018.0 1016.8 0.0
24/01:00am 8.5 2.6 6.0 84 1.2 S 26 32 14 17 1018.0 1016.8 0.0
24/12:34am 8.8 3.0 6.3 84 1.2 S 26 32 14 17 1018.1 1016.9 0.0
24/12:30am 8.8 2.6 6.3 84 1.2 S 28 32 15 17 1018.1 1016.9 0.0
24/12:00am 8.5 3.1 6.5 87 1.0 SSW 24 30 13 16 1017.9 1016.7 0.0
 
Date/Time
EDT
Temp
°C
App
Temp
°C
Dew
Point
°C
Rel
Hum
%
Delta-T
°C
Wind Press
QNH
hPa
Press
MSL
hPa
Rain since
9am
mm
Dir  Spd
km/h
Gust
km/h
Spd
kts
Gust
kts
23/11:37pm 8.1 3.6 7.0 93 0.5 SSW 20 26 11 14 1018.0 1016.8 0.0
23/11:30pm 7.7 3.2 6.8 94 0.4 SW 20 24 11 13 1017.9 1016.7 0.0
23/11:00pm 7.8 2.8 6.3 90 0.7 SSW 22 28 12 15 1017.5 1016.4 0.0
23/10:30pm 8.3 2.1 6.1 86 1.1 SSW 28 35 15 19 1017.4 1016.2 0.0
23/10:00pm 9.4 1.9 6.3 81 1.5 SSW 35 44 19 24 1016.7 1015.5 0.0
23/09:30pm 10.7 6.2 6.8 77 1.9 SSW 20 28 11 15 1016.3 1015.1 0.0
23/09:00pm 14.1 8.4 4.9 54 4.5 SW 24 46 13 25 1015.5 1014.2 0.0
23/08:58pm 14.4 9.2 3.5 48 5.2 WSW 20 44 11 24 1015.3 1014.1 0.0
23/08:30pm 16.3 12.7 -2.2 28 8.0 NW 7 11 4 6 1014.8 1013.6 0.0
23/08:00pm 18.2 13.8 -2.1 25 8.9 WNW 11 15 6 8 1014.5 1013.2 0.0
23/07:30pm 18.9 14.2 -2.1 24 9.3 WNW 13 20 7 11 1013.9 1012.7 0.0
23/07:00pm 21.4 16.7 -1.8 21 10.5 NW 13 22 7 12 1013.3 1012.0 0.0
23/06:30pm 22.6 17.5 -2.2 19 11.3 NW 15 26 8 14 1013.0 1011.8 0.0
23/06:00pm 23.1 17.2 -2.5 18 11.6 NW 19 30 10 16 1013.0 1011.8 0.0
23/05:30pm 23.3 16.2 -1.6 19 11.5 WNW 26 39 14 21 1013.0 1011.8 0.0
23/05:00pm 23.7 17.6 0.1 21 11.3 WNW 22 39 12 21 1012.8 1011.6 0.0
23/04:37pm 23.8 16.3 -1.2 19 11.7 WNW 28 46 15 25 1012.9 1011.7 0.0
23/04:30pm 23.4 15.8 -2.2 18 11.7 WNW 28 43 15 23 1012.9 1011.7 0.0
23/04:02pm 23.8 16.3 -1.2 19 11.7 WNW 28 50 15 27 1012.8 1011.6 0.0
23/04:00pm 23.7 16.0 -2.8 17 12.0 WNW 28 50 15 27 1012.8 1011.6 0.0
23/03:42pm 24.5 16.9 -2.1 17 12.3 WNW 28 46 15 25 1012.8 1011.6 0.0
23/03:30pm 24.2 16.3 -1.6 18 12.0 WNW 30 46 16 25 1013.2 1011.9 0.0
23/03:24pm 23.5 15.9 -2.2 18 11.8 WNW 28 46 15 25 1013.0 1011.8 0.0
23/03:00pm 24.0 17.5 0.4 21 11.4 WNW 24 43 13 23 1013.4 1012.1 0.0
23/02:30pm 24.3 17.6 -0.8 19 11.9 W 24 39 13 21 1013.7 1012.5 0.0
23/02:00pm 24.1 16.6 -1.7 18 12.0 WNW 28 43 15 23 1013.9 1012.7 0.0
23/01:30pm 22.8 15.3 -1.3 20 11.2 WNW 28 41 15 22 1013.9 1012.7 0.0
23/01:00pm 22.5 14.8 -0.3 22 10.7 NW 30 43 16 23 1014.0 1012.8 0.0
23/12:30pm 21.6 14.4 -2.3 20 10.8 WNW 26 50 14 27 1014.2 1013.0 0.0
23/12:00pm 21.9 15.1 -2.0 20 10.9 NW 24 39 13 21 1014.7 1013.5 0.0
23/11:30am 21.7 15.7 -2.9 19 11.0 WNW 19 32 10 17 1014.9 1013.7 0.0
23/11:00am 20.9 14.8 -2.2 21 10.4 NW 20 32 11 17 1015.0 1013.8 0.0
23/10:30am 21.1 14.7 -1.4 22 10.3 NW 22 30 12 16 1015.0 1013.8 0.0
23/10:00am 20.1 14.9 0.0 26 9.3 NNW 17 26 9 14 1015.2 1014.0 0.0
23/09:30am 18.1 13.8 0.7 31 8.1 NNE 13 20 7 11 1015.5 1014.2 0.0
23/09:00am 17.1 11.9 -0.1 31 7.8 ENE 17 22 9 12 1015.6 1014.4 0.0
23/08:30am 14.1 8.7 2.4 45 5.4 NE 20 26 11 14 1015.5 1014.2 0.0
23/08:00am 13.4 7.9 0.8 42 5.6 NE 19 24 10 13 1015.7 1014.5 0.0
23/07:30am 10.0 6.4 3.1 62 3.2 NE 11 15 6 8 1015.8 1014.6 0.0
23/07:00am 7.1 1.8 2.0 70 2.2 ENE 19 20 10 11 1015.6 1014.4 0.0
23/06:30am 4.9 -0.1 1.6 79 1.4 NE 17 20 9 11 1015.3 1014.1 0.0
23/06:00am 4.8 0.2 1.7 80 1.3 NNE 15 19 8 10 1015.0 1013.8 0.0
23/05:30am 3.9 -0.1 0.8 80 1.3 NNE 11 15 6 8 1015.1 1013.9 0.0
23/05:00am 5.2 0.9 1.1 75 1.7 NNE 13 15 7 8 1014.8 1013.6 0.0
23/04:30am 4.6 0.2 0.6 75 1.6 NE 13 17 7 9 1014.9 1013.7 0.0
23/04:00am 4.9 0.7 1.9 81 1.3 ENE 13 17 7 9 1015.2 1014.0 0.0
23/03:30am 5.1 0.9 1.4 77 1.6 NNE 13 17 7 9 1015.3 1014.1 0.0
23/03:00am 5.2 1.0 1.7 78 1.5 NE 13 17 7 9 1015.6 1014.4 0.0
23/02:30am 5.2 1.9 2.4 82 1.2 NNE 9 11 5 6 1015.9 1014.7 0.0
23/02:00am 3.1 -0.4 1.2 87 0.8 NE 9 11 5 6 1016.2 1015.0 0.0
23/01:30am 3.7 -0.3 0.6 80 1.3 NNE 11 13 6 7 1016.4 1015.2 0.0
23/01:00am 4.4 2.1 0.6 76 1.6 NNE 2 9 1 5 1016.9 1015.7 0.0
23/12:30am 4.5 1.5 0.5 75 1.6 NNE 6 9 3 5 1017.3 1016.1 0.0
23/12:00am 6.0 3.8 1.2 71 2.0 N 2 7 1 4 1017.5 1016.4 0.0
 
Date/Time
EDT
Temp
°C
App
Temp
°C
Dew
Point
°C
Rel
Hum
%
Delta-T
°C
Wind Press
QNH
hPa
Press
MSL
hPa
Rain since
9am
mm
Dir  Spd
km/h
Gust
km/h
Spd
kts
Gust
kts
22/11:30pm 6.7 4.9 1.4 69 2.3 CALM 0 6 0 3 1017.6 1016.5 0.0
22/11:00pm 7.9 6.1 1.5 64 2.8 CALM 0 0 0 0 1017.8 1016.6 0.0
22/10:30pm 7.9 6.1 1.3 63 2.8 CALM 0 0 0 0 1017.6 1016.5 0.0
22/10:00pm 8.2 6.3 0.7 59 3.2 CALM 0 0 0 0 1017.5 1016.4 0.0
22/09:30pm 8.8 6.1 0.5 56 3.5 ESE 4 7 2 4 1017.5 1016.4 0.0
22/09:00pm 13.7 11.7 -0.3 38 6.1 CALM 0 0 0 0 1017.1 1015.9 0.0
22/08:30pm 15.5 11.3 -0.7 33 7.1 SSE 11 26 6 14 1016.9 1015.7 0.0
22/08:00pm 16.2 11.6 -1.4 30 7.7 WNW 13 17 7 9 1016.0 1014.8 0.0
22/07:30pm 17.7 13.4 -2.0 26 8.6 NW 11 19 6 10 1015.6 1014.4 0.0
22/07:00pm 20.0 14.8 -3.0 21 10.1 NW 15 20 8 11 1015.3 1014.1 0.0
22/06:30pm 21.3 15.6 -4.0 18 11.0 NW 17 24 9 13 1014.9 1013.7 0.0
22/06:00pm 21.8 15.6 -3.5 18 11.1 NNW 20 28 11 15 1014.7 1013.5 0.0
22/05:30pm 21.5 16.1 -4.5 17 11.2 NW 15 22 8 12 1014.8 1013.6 0.0
22/05:00pm 23.0 17.1 -2.6 18 11.6 NW 19 28 10 15 1014.6 1013.3 0.0
22/04:30pm 23.0 16.7 -5.9 14 12.3 NW 19 26 10 14 1014.6 1013.3 0.0
22/04:00pm 23.3 17.0 -3.9 16 12.0 NNW 20 30 11 16 1014.6 1013.3 0.0
22/03:30pm 23.6 18.1 -2.1 18 11.8 WNW 17 28 9 15 1014.8 1013.6 0.0
22/03:00pm 23.0 17.0 -3.3 17 11.8 NW 19 28 10 15 1014.9 1013.7 0.0
22/02:30pm 23.2 17.5 -4.0 16 12.0 NW 17 28 9 15 1015.2 1014.0 0.0
22/02:00pm 23.1 17.9 -2.5 18 11.6 NNW 15 26 8 14 1015.3 1014.1 0.0
22/01:30pm 22.8 18.1 -2.0 19 11.3 NNW 13 26 7 14 1015.3 1014.1 0.0
22/01:00pm 22.4 16.9 -2.3 19 11.2 NNW 17 30 9 16 1015.8 1014.6 0.0
22/12:30pm 22.0 18.0 0.5 24 10.2 NNW 11 28 6 15 1016.0 1014.8 0.0
22/12:00pm 21.0 16.6 0.2 25 9.8 NNW 13 20 7 11 1016.2 1015.0 0.0
22/11:30am 20.0 15.9 -0.1 26 9.3 N 11 20 6 11 1016.8 1015.6 0.0
22/11:00am 19.5 15.7 1.5 30 8.6 N 11 20 6 11 1017.1 1015.9 0.0
22/10:30am 18.1 14.5 2.8 36 7.4 NNE 11 15 6 8 1017.4 1016.2 0.0
22/10:00am 17.2 13.4 3.8 41 6.6 NNW 13 22 7 12 1017.5 1016.4 0.0
22/09:30am 15.2 11.5 8.0 62 3.8 NE 17 24 9 13 1017.5 1016.4 0.0
22/09:00am 12.4 8.2 7.5 72 2.5 NE 19 22 10 12 1017.6 1016.5 0.0
22/08:30am 10.3 6.0 7.9 85 1.2 NE 20 24 11 13 1017.6 1016.5 0.0
22/08:00am 8.2 4.6 8.2 100 0.0 NE 17 20 9 11 1017.4 1016.2 0.0
22/07:47am 7.6 3.8 7.6 100 0.0 NE 17 20 9 11 1017.3 1016.1 0.0
22/07:30am 6.7 3.1 6.7 100 0.0 NE 15 17 8 9 1017.3 1016.1 0.0
22/07:00am 6.1 2.4 6.1 100 0.0 NNE 15 19 8 10 1017.2 1016.0 0.0
22/06:30am 6.2 1.7 6.2 100 0.0 NE 19 24 10 13 1017.0 1015.8 0.0
22/06:18am 6.0 1.9 6.0 100 0.0 NNE 17 22 9 12 1016.9 1015.7 0.0
22/06:02am 5.4 1.1 5.4 100 0.0 NE 17 20 9 11 1016.8 1015.6 0.0
22/06:00am 5.5 1.3 5.5 100 0.0 NE 17 20 9 11 1016.8 1015.6 0.0
22/05:30am 5.8 1.2 5.8 100 0.0 NE 19 22 10 12 1016.8 1015.6 0.0
22/05:07am 4.9 0.9 4.9 100 0.0 NNE 15 19 8 10 1016.9 1015.7 0.0
22/05:00am 4.8 0.4 4.8 100 0.0 NNE 17 19 9 10 1016.9 1015.7 0.0
22/04:50am 4.6 0.5 4.6 100 0.0 NE 15 17 8 9 1016.9 1015.7 0.0
22/04:30am 3.8 -0.4 3.8 100 0.0 NE 15 17 8 9 1017.0 1015.8 0.0
22/04:00am 3.1 -0.9 3.0 99 0.0 NNE 13 15 7 8 1017.0 1015.8 0.0
22/03:30am 2.7 -1.0 2.6 99 0.0 NE 11 13 6 7 1017.0 1015.8 0.0
22/03:16am 2.4 -0.9 2.3 99 0.0 NNE 9 11 5 6 1017.2 1016.0 0.0
22/03:00am 2.4 -0.9 2.3 99 0.0 N 9 9 5 5 1017.3 1016.1 0.0
22/02:54am 2.1 -0.9 2.0 99 0.0 N 7 9 4 5 1017.3 1016.1 0.0
22/02:30am 3.5 2.1 3.4 99 0.0 CALM 0 0 0 0 1017.3 1016.1 0.0
22/02:00am 3.2 1.7 3.1 99 0.0 CALM 0 0 0 0 1017.3 1016.1 0.0
22/01:30am 3.5 0.9 3.2 98 0.1 NNE 6 7 3 4 1017.6 1016.5 0.0
22/01:00am 4.0 1.4 3.3 95 0.3 W 6 7 3 4 1017.9 1016.7 0.0
22/12:30am 5.3 4.1 4.6 95 0.3 CALM 0 0 0 0 1018.2 1017.0 0.0
22/12:00am 6.5 4.5 6.1 97 0.2 NNW 6 7 3 4 1018.4 1017.3 0.0
 
Date/Time
EDT
Temp
°C
App
Temp
°C
Dew
Point
°C
Rel
Hum
%
Delta-T
°C
Wind Press
QNH
hPa
Press
MSL
hPa
Rain since
9am
mm
Dir  Spd
km/h
Gust
km/h
Spd
kts
Gust
kts
21/11:30pm 7.1 5.1 7.0 99 0.0 N 7 9 4 5 1018.6 1017.5 0.0
21/11:00pm 6.8 4.6 6.1 95 0.3 N 7 9 4 5 1018.7 1017.6 0.0
21/10:30pm 7.0 4.8 6.4 96 0.3 NE 7 9 4 5 1018.8 1017.7 0.0
21/10:00pm 7.4 4.7 5.5 88 0.9 NNE 9 11 5 6 1018.8 1017.7 0.0
21/09:30pm 7.8 4.9 4.4 79 1.6 NE 9 11 5 6 1018.5 1017.4 0.0
21/09:00pm 8.6 5.5 3.6 71 2.3 E 9 13 5 7 1018.1 1016.9 0.0
21/08:30pm 10.7 7.0 4.2 64 3.1 ESE 13 17 7 9 1017.8 1016.6 0.0
21/08:00pm 11.4 7.7 4.2 61 3.4 ESE 13 17 7 9 1017.5 1016.4 0.0
21/07:30pm 12.7 8.2 4.2 56 4.1 SSE 17 20 9 11 1017.1 1015.9 0.0
21/07:00pm 14.2 9.7 4.2 51 4.8 S 17 20 9 11 1016.5 1015.4 0.0
21/06:30pm 15.2 11.0 4.0 47 5.4 SSE 15 20 8 11 1016.2 1015.0 0.0
21/06:00pm 15.8 11.2 3.9 45 5.8 SSE 17 24 9 13 1015.9 1014.7 0.0
21/05:30pm 16.1 11.5 3.9 44 6.0 SSE 17 26 9 14 1015.8 1014.6 0.0
21/05:00pm 16.4 11.8 3.8 43 6.1 S 17 28 9 15 1015.6 1014.4 0.0
21/04:30pm 17.1 12.8 5.1 45 6.0 S 17 24 9 13 1015.6 1014.4 0.0
21/04:00pm 16.1 11.8 3.2 42 6.2 SSW 15 26 8 14 1015.7 1014.5 0.0
21/03:30pm 16.2 11.2 3.6 43 6.1 SSW 19 26 10 14 1015.8 1014.6 0.0
21/03:00pm 16.6 12.1 5.9 49 5.5 SSE 19 30 10 16 1016.0 1014.8 0.0
21/02:30pm 15.0 10.5 4.1 48 5.3 S 17 26 9 14 1016.2 1015.0 0.0
21/02:00pm 14.1 9.9 3.6 49 5.0 S 15 24 8 13 1016.5 1015.4 0.0
21/01:30pm 14.3 9.8 4.0 50 5.0 SW 17 24 9 13 1016.9 1015.7 0.0
21/01:00pm 13.7 9.3 4.6 54 4.4 SSW 17 28 9 15 1017.0 1015.8 0.0
21/12:30pm 13.0 8.9 4.4 56 4.1 S 15 22 8 12 1017.3 1016.1 0.0
21/12:00pm 12.1 8.8 4.6 60 3.6 SSE 11 17 6 9 1017.5 1016.4 0.0
21/11:30am 11.3 7.6 4.5 63 3.2 SW 13 20 7 11 1017.9 1016.7 0.0
21/11:00am 10.2 6.6 5.2 71 2.4 SSW 13 20 7 11 1018.0 1016.8 0.0
21/10:30am 9.1 5.0 4.3 72 2.2 WSW 15 24 8 13 1018.3 1017.1 0.0
21/10:00am 8.4 3.9 4.4 76 1.9 WSW 17 24 9 13 1018.7 1017.6 0.0
21/09:30am 7.2 3.4 3.8 79 1.5 SW 13 17 7 9 1018.7 1017.6 0.0
21/09:23am 6.8 3.4 3.8 81 1.4 SW 11 17 6 9 1018.7 1017.6 0.0
21/09:00am 6.5 2.2 3.3 80 1.4 SW 15 20 8 11 1018.7 1017.6 5.8
21/08:30am 7.0 2.5 4.3 83 1.2 SSW 17 26 9 14 1018.5 1017.4 5.8
21/08:24am 6.6 2.6 4.8 88 0.8 SSW 15 20 8 11 1018.6 1017.5 5.8

Other Formats:

Comma delimited format used in spreadsheet applications
http://www.bom.gov.au/fwo/IDN60801/IDN60801.94921.axf

JavaScript Object Notation format (JSON) in row-major order
http://www.bom.gov.au/fwo/IDN60801/IDN60801.94921.json